aviador You're here:

GMTT Decoded Metar

TANGER in MOROCCO
Report Time2018-02-17 23:30:00
UTC Time2018-02-17 23:36:11
Flight Rules vfr VFR
Wind110° at 06 kt
W.Decomp.*RWY 10: 5.9 kt HW 1.2 kt RCW
W.Rank110° ranks 4
Current wind is below 110° avg. (9.0)
Visibility8000 m
Phenomena:N/A
Clouds:Few 016 Hf
Expected CloudBase > 800 ft AGL from Temp-Dew spread
CeilingNone
Temp08°C (ISA -7)
Dew Point06°C (87% RH)
AAT4.9°C
QNH1023 hPa
Density Alt-968 ft
Elevation69 ft
Report Wrong Elevation
Raw Report
METAR GMTT 172330Z 11006KT 8000 FEW016 08/06 Q1023 NOSIG=

Extra information for GMTT:More info

Metar Taf Metar & Taf Last 4 Metars F.Rules Stats Wind Profile Meteogram Temp Stats Airport Information Weather charts Add Link Nearby VenuesMetar ALERT Operation Metar Decoded Social comments